createdAt,value
2022-11-08T00:00:22.798Z,32.22
2022-11-08T00:02:24.762Z,33.15
2022-11-08T00:04:26.853Z,31.48
2022-11-08T00:06:47.513Z,32.67
2022-11-08T00:09:07.665Z,32.00
2022-11-08T00:11:27.847Z,33.80
2022-11-08T00:13:47.987Z,33.30
2022-11-08T00:15:49.758Z,32.45
2022-11-08T00:17:51.386Z,32.70
2022-11-08T00:19:53.377Z,33.85
2022-11-08T00:21:55.214Z,31.58
2022-11-08T00:23:56.809Z,33.20
2022-11-08T00:25:58.437Z,32.22
2022-11-08T00:28:00.308Z,30.52
2022-11-08T00:30:02.052Z,34.55
2022-11-08T00:32:04.764Z,33.45
2022-11-08T00:34:06.665Z,32.03
2022-11-08T00:36:08.561Z,35.30
2022-11-08T00:38:10.228Z,35.00
2022-11-08T00:40:12.481Z,34.65
2022-11-08T00:42:14.121Z,32.95
2022-11-08T00:44:15.746Z,32.60
2022-11-08T00:46:17.632Z,31.83
2022-11-08T00:48:19.559Z,31.55
2022-11-08T00:50:21.417Z,32.35
2022-11-08T00:52:23.145Z,33.13
2022-11-08T00:54:25.030Z,33.67
2022-11-08T00:56:27.155Z,32.63
2022-11-08T00:58:29.573Z,33.95
2022-11-08T01:00:31.432Z,32.08
2022-11-08T01:02:33.160Z,32.95
2022-11-08T01:04:34.950Z,33.20
2022-11-08T01:06:36.769Z,33.28
2022-11-08T01:08:39.208Z,33.33
2022-11-08T01:10:44.939Z,30.17
2022-11-08T01:12:46.614Z,32.10
2022-11-08T01:14:48.380Z,33.25
2022-11-08T01:16:49.984Z,31.13
2022-11-08T01:18:53.576Z,32.40
2022-11-08T01:20:55.255Z,33.30
2022-11-08T01:22:56.835Z,31.92
2022-11-08T01:24:58.676Z,33.10
2022-11-08T01:27:00.375Z,33.45
2022-11-08T01:29:02.058Z,32.95
2022-11-08T01:31:09.435Z,32.63
2022-11-08T01:33:11.639Z,33.30
2022-11-08T01:35:13.316Z,34.72
2022-11-08T01:37:15.517Z,33.33
2022-11-08T01:39:17.124Z,33.63
2022-11-08T01:41:20.905Z,32.15
2022-11-08T01:46:13.933Z,34.42
2022-11-08T01:48:15.871Z,31.33
2022-11-08T01:50:18.591Z,32.70
2022-11-08T01:52:30.206Z,32.60
2022-11-08T01:54:35.259Z,31.83
2022-11-08T01:56:37.288Z,32.63
2022-11-08T01:58:40.923Z,33.72
2022-11-08T02:00:42.709Z,33.00
2022-11-08T02:02:46.248Z,31.77
2022-11-08T02:04:48.263Z,32.72
2022-11-08T02:06:50.521Z,32.40
2022-11-08T02:08:52.118Z,31.52
2022-11-08T02:10:54.448Z,33.20
2022-11-08T02:12:56.362Z,33.13
2022-11-08T02:14:58.247Z,30.63
2022-11-08T02:16:59.978Z,32.05
2022-11-08T02:19:01.889Z,31.65
2022-11-08T02:21:25.123Z,32.10
2022-11-08T02:23:45.079Z,31.13
2022-11-08T02:25:47.391Z,33.13
2022-11-08T02:27:49.032Z,32.00
2022-11-08T02:29:53.816Z,32.17
2022-11-08T02:31:56.239Z,32.50
2022-11-08T02:33:57.965Z,31.67
2022-11-08T02:36:00.009Z,31.90
2022-11-08T02:38:01.702Z,33.13
2022-11-08T02:40:04.785Z,30.58
2022-11-08T02:42:06.515Z,31.85
2022-11-08T02:44:08.409Z,30.85
2022-11-08T02:46:10.004Z,32.63
2022-11-08T02:48:11.828Z,31.00
2022-11-08T02:50:13.674Z,33.20
2022-11-08T02:52:15.394Z,30.20
2022-11-08T02:54:17.334Z,32.72
2022-11-08T02:56:19.149Z,32.28
2022-11-08T02:58:21.224Z,32.15
2022-11-08T03:00:23.321Z,31.50
2022-11-08T03:02:25.398Z,31.60
2022-11-08T03:04:27.227Z,31.73
2022-11-08T03:06:28.915Z,32.13
2022-11-08T03:08:31.820Z,31.77
2022-11-08T03:10:33.645Z,33.00
2022-11-08T03:12:35.333Z,29.73
2022-11-08T03:14:37.096Z,31.58
2022-11-08T03:16:38.718Z,33.17
2022-11-08T03:18:40.337Z,33.28
2022-11-08T03:20:42.277Z,33.47
2022-11-08T03:22:44.393Z,32.33
2022-11-08T03:24:46.029Z,32.35
2022-11-08T03:26:47.848Z,32.53
2022-11-08T03:28:49.428Z,31.25
2022-11-08T03:30:52.644Z,32.47
2022-11-08T03:32:54.251Z,34.38
2022-11-08T03:34:55.818Z,33.60
2022-11-08T03:36:57.451Z,36.92
2022-11-08T03:38:59.177Z,35.58
2022-11-08T03:41:00.943Z,35.75
2022-11-08T03:43:02.552Z,37.72
2022-11-08T03:45:04.349Z,35.53
2022-11-08T03:47:06.361Z,37.17
2022-11-08T03:49:08.122Z,36.90
2022-11-08T03:51:09.764Z,36.33
2022-11-08T03:53:11.525Z,39.13
2022-11-08T03:55:13.952Z,35.33
2022-11-08T03:57:15.567Z,33.45
2022-11-08T03:59:17.285Z,35.10
2022-11-08T04:01:18.986Z,35.50
2022-11-08T04:03:20.713Z,43.60
2022-11-08T04:05:22.551Z,47.15
2022-11-08T04:07:24.188Z,45.42
2022-11-08T04:09:25.813Z,61.35
2022-11-08T04:11:46.332Z,50.58
2022-11-08T04:14:06.606Z,51.10
2022-11-08T04:16:08.426Z,67.93
2022-11-08T04:18:28.746Z,73.35
2022-11-08T04:20:49.032Z,72.15
2022-11-08T04:22:50.717Z,71.18
2022-11-08T04:24:52.438Z,67.25
2022-11-08T04:26:54.612Z,59.95
2022-11-08T04:28:56.263Z,58.05
2022-11-08T04:31:04.677Z,62.90
2022-11-08T04:33:07.149Z,62.08
2022-11-08T04:35:08.974Z,59.60
2022-11-08T04:37:10.674Z,56.33
2022-11-08T04:39:12.560Z,54.40
2022-11-08T04:41:15.547Z,56.97
2022-11-08T04:43:17.160Z,57.85
2022-11-08T04:45:19.172Z,53.70
2022-11-08T04:47:20.810Z,52.15
2022-11-08T04:49:22.454Z,50.22
2022-11-08T04:51:31.765Z,52.47
2022-11-08T04:53:33.740Z,54.08
2022-11-08T04:55:37.209Z,47.17
2022-11-08T04:57:39.028Z,46.53
2022-11-08T04:59:40.644Z,44.92
2022-11-08T05:01:42.386Z,50.03
2022-11-08T05:03:45.932Z,48.53
2022-11-08T05:05:47.576Z,45.28
2022-11-08T05:07:49.345Z,43.15
2022-11-08T05:09:51.161Z,40.80
2022-11-08T05:11:52.977Z,40.97
2022-11-08T05:13:55.048Z,41.35
2022-11-08T05:16:01.572Z,40.60
2022-11-08T05:18:03.245Z,42.05
2022-11-08T05:20:24.969Z,43.13
2022-11-08T05:22:45.082Z,43.20
2022-11-08T05:24:46.704Z,43.75
2022-11-08T05:26:49.397Z,45.33
2022-11-08T05:28:51.148Z,42.80
2022-11-08T05:30:54.266Z,43.13
2022-11-08T05:32:59.139Z,42.03
2022-11-08T05:35:01.102Z,44.90
2022-11-08T05:37:03.396Z,47.50
2022-11-08T05:39:05.238Z,45.38
2022-11-08T05:41:09.893Z,41.33
2022-11-08T05:43:11.658Z,50.17
2022-11-08T05:45:13.372Z,52.15
2022-11-08T05:47:15.063Z,53.55
2022-11-08T05:49:16.844Z,51.95
2022-11-08T05:51:19.418Z,51.25
2022-11-08T05:53:21.315Z,50.88
2022-11-08T05:55:23.070Z,50.03
2022-11-08T05:57:24.836Z,50.40
2022-11-08T05:59:26.512Z,50.58
2022-11-08T06:01:28.322Z,48.50
2022-11-08T06:03:30.528Z,46.90
2022-11-08T06:05:33.533Z,45.20
2022-11-08T06:07:35.500Z,45.70
2022-11-08T06:09:37.346Z,46.17
2022-11-08T06:11:39.742Z,43.40
2022-11-08T06:13:41.907Z,46.63
2022-11-08T06:15:43.630Z,47.67
2022-11-08T06:17:45.417Z,47.15
2022-11-08T06:19:47.056Z,45.08
2022-11-08T06:21:48.953Z,45.22
2022-11-08T06:23:54.650Z,36.58
2022-11-08T06:25:56.374Z,39.00
2022-11-08T06:28:00.359Z,35.25
2022-11-08T06:30:02.881Z,36.28
2022-11-08T06:32:04.701Z,35.47
2022-11-08T06:34:06.378Z,37.22
2022-11-08T06:36:08.198Z,33.75
2022-11-08T06:38:09.874Z,36.03
2022-11-08T06:40:11.796Z,34.53
2022-11-08T06:42:14.315Z,30.75
2022-11-08T06:44:15.986Z,31.85
2022-11-08T06:46:17.619Z,32.08
2022-11-08T06:48:19.310Z,32.40
2022-11-08T06:50:21.110Z,31.45
2022-11-08T06:52:22.938Z,31.05
2022-11-08T06:54:26.906Z,28.77
2022-11-08T06:56:29.340Z,29.58
2022-11-08T06:58:31.350Z,29.70
2022-11-08T07:00:33.158Z,30.02
2022-11-08T07:02:35.056Z,31.23
2022-11-08T07:04:36.952Z,29.58
2022-11-08T07:06:38.712Z,31.45
2022-11-08T07:08:40.343Z,29.50
2022-11-08T07:10:42.035Z,28.73
2022-11-08T07:12:43.609Z,28.00
2022-11-08T07:14:45.238Z,30.42
2022-11-08T07:16:46.912Z,30.80
2022-11-08T07:18:50.823Z,29.10
2022-11-08T07:20:52.655Z,29.60
2022-11-08T07:22:55.597Z,31.08
2022-11-08T07:24:57.263Z,30.07
2022-11-08T07:26:59.116Z,30.65
2022-11-08T07:29:00.896Z,29.55
2022-11-08T07:31:04.544Z,28.90
2022-11-08T07:33:06.269Z,30.52
2022-11-08T07:35:08.376Z,29.35
2022-11-08T07:37:10.030Z,29.85
2022-11-08T07:39:11.951Z,29.95
2022-11-08T07:41:13.564Z,29.25
2022-11-08T07:43:15.624Z,27.52
2022-11-08T07:45:17.450Z,29.05
2022-11-08T07:47:19.132Z,27.85
2022-11-08T07:49:20.924Z,29.35
2022-11-08T07:51:22.687Z,27.95
2022-11-08T07:53:24.494Z,28.15
2022-11-08T07:55:27.261Z,28.67
2022-11-08T07:57:28.908Z,29.83
2022-11-08T07:59:30.555Z,32.05
2022-11-08T08:01:32.273Z,34.75
2022-11-08T08:03:34.054Z,33.63
2022-11-08T08:05:38.349Z,31.05
2022-11-08T08:07:40.007Z,32.25
2022-11-08T08:09:41.930Z,29.63
2022-11-08T08:11:43.878Z,29.85
2022-11-08T08:13:45.492Z,29.15
2022-11-08T08:15:47.208Z,28.50
2022-11-08T08:17:49.303Z,26.98
2022-11-08T08:19:51.032Z,25.52
2022-11-08T08:21:52.689Z,26.25
2022-11-08T08:23:54.340Z,26.20
2022-11-08T08:25:56.438Z,26.02
2022-11-08T08:28:01.039Z,26.33
2022-11-08T08:30:02.857Z,26.00
2022-11-08T08:32:04.695Z,28.85
2022-11-08T08:34:06.564Z,27.15
2022-11-08T08:36:08.251Z,28.08
2022-11-08T08:38:11.978Z,24.42
2022-11-08T08:42:15.298Z,27.98
2022-11-08T08:44:16.945Z,25.88
2022-11-08T08:46:18.655Z,24.15
2022-11-08T08:48:20.964Z,23.08
2022-11-08T08:50:23.231Z,23.48
2022-11-08T08:52:25.103Z,21.95
2022-11-08T08:54:29.463Z,21.95
2022-11-08T08:56:31.321Z,23.52
2022-11-08T08:58:33.118Z,25.80
2022-11-08T09:02:56.380Z,24.30
2022-11-08T09:04:59.151Z,22.70
2022-11-08T09:07:01.046Z,23.77
2022-11-08T09:09:02.687Z,23.05
2022-11-08T09:11:04.676Z,23.80
2022-11-08T09:13:06.359Z,24.20
2022-11-08T09:15:08.523Z,23.52
2022-11-08T09:17:10.234Z,24.02
2022-11-08T09:19:11.908Z,24.55
2022-11-08T09:21:13.547Z,26.45
2022-11-08T09:23:19.142Z,24.17
2022-11-08T09:25:20.974Z,24.83
2022-11-08T09:27:22.585Z,24.50
2022-11-08T09:29:24.175Z,25.73
2022-11-08T09:31:25.797Z,25.83
2022-11-08T09:35:34.161Z,28.73
2022-11-08T09:37:35.863Z,29.00
2022-11-08T09:39:37.449Z,29.98
2022-11-08T09:42:05.311Z,29.05
2022-11-08T09:44:31.660Z,26.63
2022-11-08T09:46:54.849Z,27.63
2022-11-08T09:48:57.473Z,23.52
2022-11-08T09:51:04.012Z,24.45
2022-11-08T09:53:21.118Z,24.88
2022-11-08T09:55:30.044Z,22.73
2022-11-08T09:57:50.411Z,22.58
2022-11-08T10:00:00.310Z,21.33
2022-11-08T10:02:02.678Z,20.00
2022-11-08T10:04:14.118Z,20.60
2022-11-08T10:06:44.481Z,20.42
2022-11-08T10:08:57.172Z,19.48
2022-11-08T10:11:20.253Z,19.42
2022-11-08T10:14:07.221Z,20.45
2022-11-08T10:16:08.776Z,19.58
2022-11-08T10:18:41.600Z,20.30
2022-11-08T10:21:08.211Z,19.55
2022-11-08T10:23:22.095Z,18.75
2022-11-08T10:25:24.723Z,20.00
2022-11-08T10:27:32.384Z,18.05
2022-11-08T10:29:37.555Z,19.48
2022-11-08T10:31:39.892Z,19.92
2022-11-08T10:33:46.348Z,20.00
2022-11-08T10:35:59.062Z,19.27
2022-11-08T10:38:09.422Z,19.02
2022-11-08T10:40:29.540Z,20.02
2022-11-08T10:42:41.962Z,19.40
2022-11-08T10:44:44.224Z,19.20
2022-11-08T10:46:48.447Z,21.80
2022-11-08T10:48:50.330Z,20.25
2022-11-08T10:50:52.772Z,19.35
2022-11-08T10:53:04.373Z,20.27
2022-11-08T10:55:08.639Z,19.63
2022-11-08T10:57:12.336Z,19.02
2022-11-08T11:01:30.589Z,19.33
2022-11-08T11:03:32.822Z,16.90
2022-11-08T11:05:37.116Z,17.77
2022-11-08T11:07:38.804Z,17.40
2022-11-08T11:09:40.506Z,15.32
2022-11-08T11:11:42.269Z,18.48
2022-11-08T11:13:44.002Z,16.60
2022-11-08T11:15:48.770Z,15.48
2022-11-08T11:17:50.431Z,15.82
2022-11-08T11:19:54.303Z,16.10
2022-11-08T11:21:57.365Z,16.45
2022-11-08T11:24:08.445Z,17.33
2022-11-08T11:26:30.836Z,18.92
2022-11-08T11:28:32.554Z,15.30
2022-11-08T11:30:35.614Z,17.75
2022-11-08T11:32:39.439Z,16.23
2022-11-08T11:34:44.232Z,15.93
2022-11-08T11:37:10.757Z,16.60
2022-11-08T11:39:15.527Z,16.35
2022-11-08T11:41:24.377Z,17.10
2022-11-08T11:43:38.852Z,16.40
2022-11-08T11:46:02.607Z,15.48
2022-11-08T11:48:19.215Z,15.82
2022-11-08T11:50:36.760Z,16.42
2022-11-08T11:52:38.394Z,15.23
2022-11-08T11:54:40.038Z,18.20
2022-11-08T11:56:44.997Z,16.42
2022-11-08T11:59:25.339Z,14.80
2022-11-08T12:01:51.324Z,14.60
2022-11-08T12:04:07.351Z,16.30
2022-11-08T12:06:24.232Z,16.42
2022-11-08T12:08:25.866Z,15.30
2022-11-08T12:10:57.727Z,15.73
2022-11-08T12:13:23.433Z,15.50
2022-11-08T12:15:41.809Z,15.13
2022-11-08T12:18:02.237Z,14.38
2022-11-08T12:20:39.098Z,15.15
2022-11-08T12:23:31.145Z,16.70
2022-11-08T12:25:40.116Z,14.57
2022-11-08T12:27:55.845Z,14.05
2022-11-08T12:30:10.967Z,13.55
2022-11-08T12:32:27.566Z,13.85
2022-11-08T12:34:54.137Z,13.23
2022-11-08T12:37:16.662Z,12.70
2022-11-08T12:39:23.818Z,12.90
2022-11-08T12:41:35.486Z,12.52
2022-11-08T12:43:51.110Z,11.52
2022-11-08T12:46:09.527Z,12.32
2022-11-08T12:48:30.355Z,13.32
2022-11-08T12:51:01.335Z,12.27
2022-11-08T12:53:25.040Z,11.88
2022-11-08T12:55:43.138Z,12.43
2022-11-08T12:57:45.632Z,12.15
2022-11-08T12:59:53.190Z,12.07
2022-11-08T13:01:56.088Z,12.23
2022-11-08T13:04:19.647Z,12.50
2022-11-08T13:06:24.404Z,12.37
2022-11-08T13:08:34.799Z,12.38
2022-11-08T13:11:02.241Z,12.88
2022-11-08T13:13:15.803Z,13.40
2022-11-08T13:15:25.238Z,12.73
2022-11-08T13:17:28.585Z,13.25
2022-11-08T13:19:54.138Z,13.50
2022-11-08T13:21:56.406Z,12.80
2022-11-08T13:24:30.484Z,12.23
2022-11-08T13:26:33.095Z,12.55
2022-11-08T13:28:38.787Z,12.77
2022-11-08T13:30:41.515Z,12.43
2022-11-08T13:32:43.209Z,14.27
2022-11-08T13:34:56.902Z,13.00
2022-11-08T13:37:20.056Z,13.23
2022-11-08T13:39:27.367Z,13.23
2022-11-08T13:41:29.040Z,13.40
2022-11-08T13:43:32.654Z,12.52
2022-11-08T13:45:35.090Z,12.95
2022-11-08T13:47:36.844Z,12.88
2022-11-08T13:49:38.600Z,12.18
2022-11-08T13:51:41.563Z,12.23
2022-11-08T13:53:46.245Z,11.95
2022-11-08T13:55:56.834Z,12.85
2022-11-08T13:58:02.257Z,12.60
2022-11-08T14:00:09.536Z,11.05
2022-11-08T14:02:23.172Z,12.10
2022-11-08T14:04:40.525Z,12.65
2022-11-08T14:06:59.743Z,12.27
2022-11-08T14:09:20.388Z,11.65
2022-11-08T14:11:25.259Z,12.48
2022-11-08T14:13:26.876Z,11.93
2022-11-08T14:15:31.824Z,11.60
2022-11-08T14:17:40.986Z,13.85
2022-11-08T14:19:44.299Z,12.25
2022-11-08T14:21:57.628Z,13.32
2022-11-08T14:23:59.288Z,12.32
2022-11-08T14:26:10.340Z,12.93
2022-11-08T14:28:47.150Z,13.25
2022-11-08T14:30:50.696Z,13.20
2022-11-08T14:33:17.433Z,13.70
2022-11-08T14:35:23.144Z,11.65
2022-11-08T14:37:28.364Z,12.65
2022-11-08T14:39:35.548Z,12.77
2022-11-08T14:41:39.111Z,13.00
2022-11-08T14:43:44.771Z,14.02
2022-11-08T14:45:49.596Z,12.95
2022-11-08T14:48:05.804Z,13.52
2022-11-08T14:50:18.877Z,12.75
2022-11-08T14:52:28.721Z,12.65
2022-11-08T14:54:38.051Z,13.02
2022-11-08T14:56:39.777Z,13.50
2022-11-08T14:58:41.699Z,13.43
2022-11-08T15:00:44.307Z,13.15
2022-11-08T15:03:00.046Z,12.77
2022-11-08T15:05:03.030Z,13.32
2022-11-08T15:07:08.320Z,13.85
2022-11-08T15:09:28.230Z,13.82
2022-11-08T15:11:35.169Z,13.02
2022-11-08T15:13:50.551Z,15.93
2022-11-08T15:15:57.867Z,19.05
2022-11-08T15:18:18.326Z,18.40
2022-11-08T15:20:21.515Z,17.02
2022-11-08T15:22:34.549Z,17.65
2022-11-08T15:24:40.468Z,17.27
2022-11-08T15:27:05.346Z,19.35
2022-11-08T15:29:13.124Z,19.02
2022-11-08T15:31:15.095Z,34.47
2022-11-08T15:33:23.790Z,29.20
2022-11-08T15:35:35.230Z,23.95
2022-11-08T15:37:37.589Z,20.17
2022-11-08T15:39:39.903Z,18.75
2022-11-08T15:41:41.967Z,17.40
2022-11-08T15:43:43.601Z,16.50
2022-11-08T15:45:53.024Z,17.08
2022-11-08T15:48:22.044Z,17.33
2022-11-08T15:50:26.174Z,18.30
2022-11-08T15:52:27.794Z,18.38
2022-11-08T15:54:29.464Z,18.58
2022-11-08T15:56:31.327Z,18.67
2022-11-08T15:58:36.337Z,19.80
2022-11-08T16:00:38.419Z,18.65
2022-11-08T16:02:40.237Z,20.23
2022-11-08T16:04:41.873Z,20.42
2022-11-08T16:06:43.552Z,22.23
2022-11-08T16:08:45.138Z,22.33
2022-11-08T16:10:49.169Z,24.10
2022-11-08T16:12:50.792Z,28.23
2022-11-08T16:14:52.421Z,26.33
2022-11-08T16:16:54.054Z,23.23
2022-11-08T16:18:55.660Z,23.50
2022-11-08T16:20:57.474Z,21.92
2022-11-08T16:23:01.404Z,22.67
2022-11-08T16:25:03.576Z,25.95
2022-11-08T16:27:05.149Z,38.10
2022-11-08T16:29:09.877Z,41.95
2022-11-08T16:31:14.260Z,46.30
2022-11-08T16:33:21.167Z,29.20
2022-11-08T16:35:23.632Z,22.52
2022-11-08T16:37:25.235Z,22.15
2022-11-08T16:39:27.419Z,25.95
2022-11-08T16:41:29.247Z,26.52
2022-11-08T16:43:31.058Z,25.35
2022-11-08T16:46:03.052Z,27.27
2022-11-08T16:47:56.341Z,24.87
2022-11-08T16:49:58.199Z,23.13
2022-11-08T16:52:02.860Z,25.67
2022-11-08T16:54:16.670Z,25.45
2022-11-08T16:56:18.532Z,37.90
2022-11-08T16:58:20.551Z,33.92
2022-11-08T17:00:26.668Z,25.45
2022-11-08T17:02:33.598Z,26.30
2022-11-08T17:04:38.455Z,29.17
2022-11-08T17:06:40.184Z,23.60
2022-11-08T17:08:48.364Z,22.50
2022-11-08T17:10:50.024Z,24.48
2022-11-08T17:12:52.266Z,32.22
2022-11-08T17:15:35.777Z,34.60
2022-11-08T17:17:37.475Z,31.00
2022-11-08T17:19:56.152Z,26.27
2022-11-08T17:21:58.137Z,25.58
2022-11-08T17:23:59.777Z,24.15
2022-11-08T17:26:05.628Z,25.38
2022-11-08T17:28:07.710Z,19.38
2022-11-08T17:30:11.676Z,19.17
2022-11-08T17:32:13.275Z,18.80
2022-11-08T17:34:22.518Z,19.45
2022-11-08T17:36:24.243Z,17.48
2022-11-08T17:38:26.048Z,19.35
2022-11-08T17:40:27.754Z,18.90
2022-11-08T17:42:33.986Z,18.50
2022-11-08T17:44:38.933Z,18.67
2022-11-08T17:46:40.634Z,18.98
2022-11-08T17:48:42.261Z,18.25
2022-11-08T17:50:47.578Z,17.20
2022-11-08T17:52:53.448Z,17.10
2022-11-08T17:54:55.076Z,15.32
2022-11-08T17:56:56.702Z,17.75
2022-11-08T17:58:58.329Z,16.90
2022-11-08T18:01:02.657Z,16.40
2022-11-08T18:03:08.846Z,16.48
2022-11-08T18:05:13.253Z,16.77
2022-11-08T18:07:14.963Z,16.15
2022-11-08T18:09:16.704Z,16.42
2022-11-08T18:11:18.350Z,15.25
2022-11-08T18:13:20.705Z,17.00
2022-11-08T18:15:22.894Z,16.10
2022-11-08T18:17:24.692Z,16.00
2022-11-08T18:19:26.601Z,15.45
2022-11-08T18:21:28.295Z,15.48
2022-11-08T18:23:29.887Z,17.33
2022-11-08T18:25:34.976Z,16.38
2022-11-08T18:27:36.597Z,16.15
2022-11-08T18:29:38.277Z,17.48
2022-11-08T18:31:40.175Z,14.43
2022-11-08T18:33:42.260Z,17.15
2022-11-08T18:35:45.352Z,19.23
2022-11-08T18:37:47.445Z,19.80
2022-11-08T18:39:49.030Z,20.73
2022-11-08T18:41:51.257Z,20.75
2022-11-08T18:43:53.190Z,20.67
2022-11-08T18:45:54.837Z,19.83
2022-11-08T18:47:56.527Z,17.42
2022-11-08T18:50:02.069Z,18.73
2022-11-08T18:52:04.325Z,16.88
2022-11-08T18:54:05.957Z,17.00
2022-11-08T18:56:08.738Z,17.58
2022-11-08T18:58:10.553Z,17.63
2022-11-08T19:00:12.560Z,17.80
2022-11-08T19:02:14.805Z,19.42
2022-11-08T19:04:16.483Z,17.35
2022-11-08T19:06:19.453Z,17.00
2022-11-08T19:08:26.953Z,19.58
2022-11-08T19:10:29.138Z,23.30
2022-11-08T19:12:30.788Z,27.98
2022-11-08T19:14:32.448Z,35.75
2022-11-08T19:16:34.922Z,32.70
2022-11-08T19:18:37.724Z,31.60
2022-11-08T19:20:39.448Z,37.28
2022-11-08T19:22:41.331Z,38.55
2022-11-08T19:24:43.150Z,42.90
2022-11-08T19:26:44.839Z,37.05
2022-11-08T19:28:47.292Z,37.83
2022-11-08T19:30:58.381Z,41.90
2022-11-08T19:33:00.394Z,36.72
2022-11-08T19:35:02.407Z,42.10
2022-11-08T19:37:06.785Z,52.22
2022-11-08T19:39:08.517Z,47.85
2022-11-08T19:41:20.959Z,37.28
2022-11-08T19:43:22.817Z,28.67
2022-11-08T19:45:27.396Z,27.80
2022-11-08T19:47:29.162Z,25.27
2022-11-08T19:49:33.332Z,26.90
2022-11-08T19:51:37.919Z,26.13
2022-11-08T19:53:40.823Z,23.30
2022-11-08T19:55:42.451Z,23.47
2022-11-08T19:57:44.532Z,22.17
2022-11-08T19:59:46.208Z,21.88
2022-11-08T20:01:47.838Z,24.63
2022-11-08T20:03:50.251Z,23.15
2022-11-08T20:05:53.451Z,22.08
2022-11-08T20:07:55.195Z,26.90
2022-11-08T20:09:57.037Z,23.23
2022-11-08T20:11:58.792Z,23.10
2022-11-08T20:14:01.105Z,22.15
2022-11-08T20:16:19.427Z,22.80
2022-11-08T20:18:21.330Z,23.20
2022-11-08T20:20:23.103Z,24.67
2022-11-08T20:22:25.165Z,22.50
2022-11-08T20:24:26.874Z,23.48
2022-11-08T20:26:28.549Z,23.50
2022-11-08T20:28:30.174Z,23.73
2022-11-08T20:30:32.305Z,23.80
2022-11-08T20:32:34.252Z,24.05
2022-11-08T20:34:38.556Z,23.88
2022-11-08T20:36:41.738Z,23.92
2022-11-08T20:38:46.279Z,25.73
2022-11-08T20:40:51.139Z,25.52
2022-11-08T20:42:55.792Z,25.13
2022-11-08T20:44:57.550Z,25.40
2022-11-08T20:47:02.544Z,27.05
2022-11-08T20:49:08.001Z,26.70
2022-11-08T20:51:14.439Z,27.00
2022-11-08T20:53:16.178Z,25.48
2022-11-08T20:55:17.818Z,27.63
2022-11-08T20:57:19.775Z,27.42
2022-11-08T20:59:21.455Z,27.10
2022-11-08T21:01:25.595Z,27.20
2022-11-08T21:03:28.294Z,30.38
2022-11-08T21:05:32.394Z,26.70
2022-11-08T21:10:07.874Z,26.40
2022-11-08T21:12:17.445Z,25.40
2022-11-08T21:14:19.107Z,25.88
2022-11-08T21:16:29.821Z,25.38
2022-11-08T21:18:34.413Z,25.27
2022-11-08T21:20:35.970Z,26.52
2022-11-08T21:22:37.662Z,27.20
2022-11-08T21:24:39.353Z,28.65
2022-11-08T21:26:40.948Z,31.52
2022-11-08T21:28:42.604Z,31.83
2022-11-08T21:30:45.429Z,31.02
2022-11-08T21:32:47.180Z,32.10
2022-11-08T21:34:48.842Z,31.50
2022-11-08T21:36:50.481Z,29.27
2022-11-08T21:38:52.784Z,29.15
2022-11-08T21:40:55.001Z,27.40
2022-11-08T21:42:56.586Z,26.60
2022-11-08T21:44:58.397Z,48.08
2022-11-08T21:47:00.194Z,72.40
2022-11-08T21:49:02.370Z,72.13
2022-11-08T21:51:04.100Z,82.60
2022-11-08T21:53:08.100Z,68.63
2022-11-08T21:55:09.984Z,53.40
2022-11-08T21:57:11.579Z,29.52
2022-11-08T21:59:13.399Z,24.30
2022-11-08T22:01:15.247Z,25.27
2022-11-08T22:03:16.925Z,27.67
2022-11-08T22:05:18.780Z,27.08
2022-11-08T22:07:20.545Z,27.48
2022-11-08T22:09:22.432Z,26.83
2022-11-08T22:11:24.204Z,26.15
2022-11-08T22:13:25.924Z,26.70
2022-11-08T22:15:27.606Z,24.50
2022-11-08T22:17:29.238Z,25.85
2022-11-08T22:19:31.164Z,27.23
2022-11-08T22:21:40.281Z,27.83
2022-11-08T22:23:42.552Z,25.88
2022-11-08T22:25:44.185Z,25.95
2022-11-08T22:27:45.815Z,24.00
2022-11-08T22:29:47.465Z,23.65
2022-11-08T22:31:49.441Z,32.25
2022-11-08T22:33:51.216Z,34.75
2022-11-08T22:35:52.819Z,29.88
2022-11-08T22:37:54.490Z,25.27
2022-11-08T22:39:56.131Z,25.73
2022-11-08T22:41:57.840Z,25.52
2022-11-08T22:43:59.560Z,23.23
2022-11-08T22:46:01.286Z,24.77
2022-11-08T22:48:02.963Z,25.08
2022-11-08T22:50:05.225Z,25.50
2022-11-08T22:52:06.930Z,27.35
2022-11-08T22:54:09.116Z,27.35
2022-11-08T22:56:11.930Z,24.80
2022-11-08T22:58:13.689Z,24.83
2022-11-08T23:00:15.855Z,24.90
2022-11-08T23:02:33.373Z,25.17
2022-11-08T23:04:35.173Z,30.77
2022-11-08T23:06:38.807Z,33.13
2022-11-08T23:08:40.520Z,31.52
2022-11-08T23:11:00.645Z,30.80
2022-11-08T23:13:21.488Z,32.33
2022-11-08T23:15:41.954Z,32.25
2022-11-08T23:17:43.646Z,34.75
2022-11-08T23:20:04.029Z,33.83
2022-11-08T23:22:25.820Z,34.10
2022-11-08T23:24:28.026Z,32.45
2022-11-08T23:26:48.539Z,31.85
2022-11-08T23:29:09.111Z,30.92
2022-11-08T23:31:30.994Z,34.08
2022-11-08T23:33:32.689Z,33.30
2022-11-08T23:35:34.338Z,29.98
2022-11-08T23:37:36.114Z,29.48
2022-11-08T23:39:58.025Z,29.60
2022-11-08T23:42:18.085Z,27.80
2022-11-08T23:44:25.603Z,28.33
2022-11-08T23:46:27.279Z,29.67
2022-11-08T23:48:28.966Z,30.60
2022-11-08T23:50:30.654Z,29.48
2022-11-08T23:52:33.592Z,29.15
2022-11-08T23:54:35.318Z,30.53
2022-11-08T23:56:37.353Z,29.33
2022-11-08T23:58:39.194Z,28.15
